Atwood, Indiana
Current Conditions -  °F | °C
As of 5:55 PM on Friday 28 Nov 2014 (Local Time) from KASW Reporting Station
Broken Clouds Broken Clouds  
Wind Chill: -5°   Ceiling: 11000
Heat Index: -1°   Visibility: 10mi
Dew Point: -6°   Wind: 7mph
Humidity: 69%   Direction: 160°SSE
Pressure: 30.07"   Gusts: NA
Location:  41.26°N, 85.98°W
Report Text: KASW 282255Z AUTO 16006KT 127V197 10SM BKN110 M01/M06 A3007 RMK AO2
Loading
Personal Weather Stations






























Interactive Weather Map New forecast layout! Learn more

10-Day Weather Forecast

Advertisements
Track Severe Weather on mobile